sensor_id;sensor_type;location;lat;lon;timestamp;temperature;humidity
20672;DHT22;10495;50.922;4.760;2023-04-07T00:01:48;11.50;91.00
20672;DHT22;10495;50.922;4.760;2023-04-07T00:04:14;11.60;90.80
20672;DHT22;10495;50.922;4.760;2023-04-07T00:06:39;11.80;90.60
20672;DHT22;10495;50.922;4.760;2023-04-07T00:09:05;11.60;90.60
20672;DHT22;10495;50.922;4.760;2023-04-07T00:11:31;11.60;90.80
20672;DHT22;10495;50.922;4.760;2023-04-07T00:13:56;11.50;90.80
20672;DHT22;10495;50.922;4.760;2023-04-07T00:16:22;11.50;90.90
20672;DHT22;10495;50.922;4.760;2023-04-07T00:18:48;11.50;90.70
20672;DHT22;10495;50.922;4.760;2023-04-07T00:21:13;11.60;90.70
20672;DHT22;10495;50.922;4.760;2023-04-07T00:23:39;11.40;90.80
20672;DHT22;10495;50.922;4.760;2023-04-07T00:26:04;11.30;90.90
20672;DHT22;10495;50.922;4.760;2023-04-07T00:28:30;11.40;91.10
20672;DHT22;10495;50.922;4.760;2023-04-07T00:30:55;11.50;90.90
20672;DHT22;10495;50.922;4.760;2023-04-07T00:33:21;11.40;90.80
20672;DHT22;10495;50.922;4.760;2023-04-07T00:35:47;11.30;91.00
20672;DHT22;10495;50.922;4.760;2023-04-07T00:38:12;11.40;90.90
20672;DHT22;10495;50.922;4.760;2023-04-07T00:40:38;11.20;91.00
20672;DHT22;10495;50.922;4.760;2023-04-07T00:43:03;11.20;91.20
20672;DHT22;10495;50.922;4.760;2023-04-07T00:45:29;11.20;91.20
20672;DHT22;10495;50.922;4.760;2023-04-07T00:47:56;11.20;91.10
20672;DHT22;10495;50.922;4.760;2023-04-07T00:50:22;11.10;91.10
20672;DHT22;10495;50.922;4.760;2023-04-07T00:52:48;11.10;91.30
20672;DHT22;10495;50.922;4.760;2023-04-07T00:55:14;11.20;91.30
20672;DHT22;10495;50.922;4.760;2023-04-07T00:57:39;11.10;91.20
20672;DHT22;10495;50.922;4.760;2023-04-07T01:00:06;11.10;91.20
20672;DHT22;10495;50.922;4.760;2023-04-07T01:05:20;11.20;91.10
20672;DHT22;10495;50.922;4.760;2023-04-07T01:10:22;11.10;91.10
20672;DHT22;10495;50.922;4.760;2023-04-07T01:12:56;11.20;91.00
20672;DHT22;10495;50.922;4.760;2023-04-07T01:15:27;11.00;91.10
20672;DHT22;10495;50.922;4.760;2023-04-07T01:17:59;11.00;91.30
20672;DHT22;10495;50.922;4.760;2023-04-07T01:20:30;11.00;91.30
20672;DHT22;10495;50.922;4.760;2023-04-07T01:23:01;11.00;91.30
20672;DHT22;10495;50.922;4.760;2023-04-07T01:25:56;10.90;91.30
20672;DHT22;10495;50.922;4.760;2023-04-07T01:31:22;11.10;91.20
20672;DHT22;10495;50.922;4.760;2023-04-07T01:33:50;11.00;91.30
20672;DHT22;10495;50.922;4.760;2023-04-07T01:36:17;10.90;91.40
20672;DHT22;10495;50.922;4.760;2023-04-07T01:38:44;10.90;91.40
20672;DHT22;10495;50.922;4.760;2023-04-07T01:41:10;11.00;91.20
20672;DHT22;10495;50.922;4.760;2023-04-07T01:43:40;10.90;91.10
20672;DHT22;10495;50.922;4.760;2023-04-07T01:46:06;11.00;91.10
20672;DHT22;10495;50.922;4.760;2023-04-07T01:48:33;10.90;91.20
20672;DHT22;10495;50.922;4.760;2023-04-07T01:51:02;10.90;91.10
20672;DHT22;10495;50.922;4.760;2023-04-07T01:53:29;10.90;91.20
20672;DHT22;10495;50.922;4.760;2023-04-07T01:55:56;10.80;91.20
20672;DHT22;10495;50.922;4.760;2023-04-07T01:58:22;10.80;91.40
20672;DHT22;10495;50.922;4.760;2023-04-07T02:00:48;10.80;91.30
20672;DHT22;10495;50.922;4.760;2023-04-07T02:03:21;10.80;91.20
20672;DHT22;10495;50.922;4.760;2023-04-07T02:05:49;10.90;91.20
20672;DHT22;10495;50.922;4.760;2023-04-07T02:08:17;10.80;91.10
20672;DHT22;10495;50.922;4.760;2023-04-07T02:10:46;10.80;91.10
20672;DHT22;10495;50.922;4.760;2023-04-07T02:13:15;10.70;91.10
20672;DHT22;10495;50.922;4.760;2023-04-07T02:15:43;10.80;91.10
20672;DHT22;10495;50.922;4.760;2023-04-07T02:18:13;10.60;91.00
20672;DHT22;10495;50.922;4.760;2023-04-07T02:20:41;10.60;91.00
20672;DHT22;10495;50.922;4.760;2023-04-07T02:23:08;10.50;91.00
20672;DHT22;10495;50.922;4.760;2023-04-07T02:25:34;10.50;91.00
20672;DHT22;10495;50.922;4.760;2023-04-07T02:28:03;10.50;91.00
20672;DHT22;10495;50.922;4.760;2023-04-07T02:30:29;10.40;91.00
20672;DHT22;10495;50.922;4.760;2023-04-07T02:32:55;10.40;91.00
20672;DHT22;10495;50.922;4.760;2023-04-07T02:35:20;10.30;90.90
20672;DHT22;10495;50.922;4.760;2023-04-07T02:37:46;10.30;91.00
20672;DHT22;10495;50.922;4.760;2023-04-07T02:40:12;10.20;90.90
20672;DHT22;10495;50.922;4.760;2023-04-07T02:42:38;10.20;90.90
20672;DHT22;10495;50.922;4.760;2023-04-07T02:45:04;10.10;90.90
20672;DHT22;10495;50.922;4.760;2023-04-07T02:47:31;10.20;90.80
20672;DHT22;10495;50.922;4.760;2023-04-07T02:49:57;10.00;91.00
20672;DHT22;10495;50.922;4.760;2023-04-07T02:52:22;10.00;91.00
20672;DHT22;10495;50.922;4.760;2023-04-07T02:54:48;10.00;90.80
20672;DHT22;10495;50.922;4.760;2023-04-07T02:57:13;9.90;90.80
20672;DHT22;10495;50.922;4.760;2023-04-07T02:59:39;9.90;90.80
20672;DHT22;10495;50.922;4.760;2023-04-07T03:02:06;9.80;90.90
20672;DHT22;10495;50.922;4.760;2023-04-07T03:04:31;9.80;90.80
20672;DHT22;10495;50.922;4.760;2023-04-07T03:06:57;9.70;90.80
20672;DHT22;10495;50.922;4.760;2023-04-07T03:09:23;9.70;90.80
20672;DHT22;10495;50.922;4.760;2023-04-07T03:11:48;9.60;90.90
20672;DHT22;10495;50.922;4.760;2023-04-07T03:14:14;9.60;90.80
20672;DHT22;10495;50.922;4.760;2023-04-07T03:16:40;9.60;90.80
20672;DHT22;10495;50.922;4.760;2023-04-07T03:19:06;9.50;90.80
20672;DHT22;10495;50.922;4.760;2023-04-07T03:21:33;9.60;90.80
20672;DHT22;10495;50.922;4.760;2023-04-07T03:23:59;9.50;90.80
20672;DHT22;10495;50.922;4.760;2023-04-07T03:26:25;9.50;90.70
20672;DHT22;10495;50.922;4.760;2023-04-07T03:28:50;9.50;90.70
20672;DHT22;10495;50.922;4.760;2023-04-07T03:31:16;9.50;90.70
20672;DHT22;10495;50.922;4.760;2023-04-07T03:33:41;9.40;90.60
20672;DHT22;10495;50.922;4.760;2023-04-07T03:36:07;9.40;90.70
20672;DHT22;10495;50.922;4.760;2023-04-07T03:38:32;9.40;90.70
20672;DHT22;10495;50.922;4.760;2023-04-07T03:40:58;9.40;90.70
20672;DHT22;10495;50.922;4.760;2023-04-07T03:43:24;9.30;90.60
20672;DHT22;10495;50.922;4.760;2023-04-07T03:45:51;9.30;90.70
20672;DHT22;10495;50.922;4.760;2023-04-07T03:48:17;9.30;90.70
20672;DHT22;10495;50.922;4.760;2023-04-07T03:50:42;9.30;90.60
20672;DHT22;10495;50.922;4.760;2023-04-07T03:53:08;9.30;90.70
20672;DHT22;10495;50.922;4.760;2023-04-07T03:55:34;9.20;90.90
20672;DHT22;10495;50.922;4.760;2023-04-07T03:58:00;9.20;90.60
20672;DHT22;10495;50.922;4.760;2023-04-07T04:00:26;9.20;90.70
20672;DHT22;10495;50.922;4.760;2023-04-07T04:02:52;9.20;90.70
20672;DHT22;10495;50.922;4.760;2023-04-07T04:05:17;9.20;90.90
20672;DHT22;10495;50.922;4.760;2023-04-07T04:07:43;9.20;91.30
20672;DHT22;10495;50.922;4.760;2023-04-07T04:10:09;9.20;91.30
20672;DHT22;10495;50.922;4.760;2023-04-07T04:12:35;9.20;91.30
20672;DHT22;10495;50.922;4.760;2023-04-07T04:15:01;9.30;91.50
20672;DHT22;10495;50.922;4.760;2023-04-07T04:17:26;9.30;91.40
20672;DHT22;10495;50.922;4.760;2023-04-07T04:19:52;9.40;91.40
20672;DHT22;10495;50.922;4.760;2023-04-07T04:22:18;9.30;91.40
20672;DHT22;10495;50.922;4.760;2023-04-07T04:24:44;9.40;91.20
20672;DHT22;10495;50.922;4.760;2023-04-07T04:27:10;9.40;91.30
20672;DHT22;10495;50.922;4.760;2023-04-07T04:29:35;9.40;91.30
20672;DHT22;10495;50.922;4.760;2023-04-07T04:32:01;9.50;91.40
20672;DHT22;10495;50.922;4.760;2023-04-07T04:34:26;9.50;91.40
20672;DHT22;10495;50.922;4.760;2023-04-07T04:36:52;9.50;91.40
20672;DHT22;10495;50.922;4.760;2023-04-07T04:39:18;9.50;91.40
20672;DHT22;10495;50.922;4.760;2023-04-07T04:41:44;9.60;91.30
20672;DHT22;10495;50.922;4.760;2023-04-07T04:44:09;9.60;91.30
20672;DHT22;10495;50.922;4.760;2023-04-07T04:46:35;9.50;91.30
20672;DHT22;10495;50.922;4.760;2023-04-07T04:49:01;9.60;91.30
20672;DHT22;10495;50.922;4.760;2023-04-07T04:51:27;9.60;91.30
20672;DHT22;10495;50.922;4.760;2023-04-07T04:53:52;9.60;91.30
20672;DHT22;10495;50.922;4.760;2023-04-07T04:56:18;9.50;91.50
20672;DHT22;10495;50.922;4.760;2023-04-07T04:58:43;9.50;91.30
20672;DHT22;10495;50.922;4.760;2023-04-07T05:01:13;9.50;91.30
20672;DHT22;10495;50.922;4.760;2023-04-07T05:03:39;9.50;91.20
20672;DHT22;10495;50.922;4.760;2023-04-07T05:06:05;9.50;91.20
20672;DHT22;10495;50.922;4.760;2023-04-07T05:08:31;9.40;91.20
20672;DHT22;10495;50.922;4.760;2023-04-07T05:10:56;9.40;91.10
20672;DHT22;10495;50.922;4.760;2023-04-07T05:13:22;9.40;91.10
20672;DHT22;10495;50.922;4.760;2023-04-07T05:15:48;9.40;91.10
20672;DHT22;10495;50.922;4.760;2023-04-07T05:18:14;9.40;91.10
20672;DHT22;10495;50.922;4.760;2023-04-07T05:20:39;9.20;91.00
20672;DHT22;10495;50.922;4.760;2023-04-07T05:23:05;9.20;91.00
20672;DHT22;10495;50.922;4.760;2023-04-07T05:25:31;9.20;90.90
20672;DHT22;10495;50.922;4.760;2023-04-07T05:27:57;9.10;90.90
20672;DHT22;10495;50.922;4.760;2023-04-07T05:30:24;9.10;90.90
20672;DHT22;10495;50.922;4.760;2023-04-07T05:32:51;9.10;90.90
20672;DHT22;10495;50.922;4.760;2023-04-07T05:35:16;9.10;90.90
20672;DHT22;10495;50.922;4.760;2023-04-07T05:37:42;9.00;90.90
20672;DHT22;10495;50.922;4.760;2023-04-07T05:40:08;9.00;90.80
20672;DHT22;10495;50.922;4.760;2023-04-07T05:42:33;9.00;90.80
20672;DHT22;10495;50.922;4.760;2023-04-07T05:44:59;9.00;90.90
20672;DHT22;10495;50.922;4.760;2023-04-07T05:47:24;8.90;90.90
20672;DHT22;10495;50.922;4.760;2023-04-07T05:49:50;9.00;90.90
20672;DHT22;10495;50.922;4.760;2023-04-07T05:52:15;9.00;91.00
20672;DHT22;10495;50.922;4.760;2023-04-07T05:54:41;9.00;91.10
20672;DHT22;10495;50.922;4.760;2023-04-07T05:57:07;9.00;91.10
20672;DHT22;10495;50.922;4.760;2023-04-07T05:59:34;9.10;91.30
20672;DHT22;10495;50.922;4.760;2023-04-07T06:02:00;9.20;91.40
20672;DHT22;10495;50.922;4.760;2023-04-07T06:04:25;9.30;91.50
20672;DHT22;10495;50.922;4.760;2023-04-07T06:06:51;9.40;91.70
20672;DHT22;10495;50.922;4.760;2023-04-07T06:09:22;9.60;91.90
20672;DHT22;10495;50.922;4.760;2023-04-07T06:11:48;9.80;91.60
20672;DHT22;10495;50.922;4.760;2023-04-07T06:14:14;9.90;91.80
20672;DHT22;10495;50.922;4.760;2023-04-07T06:16:39;10.10;91.80
20672;DHT22;10495;50.922;4.760;2023-04-07T06:19:06;10.30;92.00
20672;DHT22;10495;50.922;4.760;2023-04-07T06:21:32;10.50;92.20
20672;DHT22;10495;50.922;4.760;2023-04-07T06:23:58;10.70;92.10
20672;DHT22;10495;50.922;4.760;2023-04-07T06:26:24;10.90;92.00
20672;DHT22;10495;50.922;4.760;2023-04-07T06:28:50;11.10;91.70
20672;DHT22;10495;50.922;4.760;2023-04-07T06:31:16;11.10;91.80
20672;DHT22;10495;50.922;4.760;2023-04-07T06:33:43;11.10;91.70
20672;DHT22;10495;50.922;4.760;2023-04-07T06:36:08;11.20;91.70
20672;DHT22;10495;50.922;4.760;2023-04-07T06:38:34;11.10;91.60
20672;DHT22;10495;50.922;4.760;2023-04-07T06:41:00;11.30;91.70
20672;DHT22;10495;50.922;4.760;2023-04-07T06:43:25;11.40;91.60
20672;DHT22;10495;50.922;4.760;2023-04-07T06:45:51;11.50;91.50
20672;DHT22;10495;50.922;4.760;2023-04-07T06:48:16;11.60;91.40
20672;DHT22;10495;50.922;4.760;2023-04-07T06:50:45;11.60;91.30
20672;DHT22;10495;50.922;4.760;2023-04-07T06:53:11;11.60;91.50
20672;DHT22;10495;50.922;4.760;2023-04-07T06:55:37;11.70;91.50
20672;DHT22;10495;50.922;4.760;2023-04-07T06:58:02;11.80;91.50
20672;DHT22;10495;50.922;4.760;2023-04-07T07:00:28;12.00;90.90
20672;DHT22;10495;50.922;4.760;2023-04-07T07:02:55;11.90;90.80
20672;DHT22;10495;50.922;4.760;2023-04-07T07:05:21;12.00;91.10
20672;DHT22;10495;50.922;4.760;2023-04-07T07:07:48;12.10;91.20
20672;DHT22;10495;50.922;4.760;2023-04-07T07:10:13;12.40;91.40
20672;DHT22;10495;50.922;4.760;2023-04-07T07:12:39;12.70;90.80
20672;DHT22;10495;50.922;4.760;2023-04-07T07:15:06;12.90;90.10
20672;DHT22;10495;50.922;4.760;2023-04-07T07:17:32;13.00;90.20
20672;DHT22;10495;50.922;4.760;2023-04-07T07:19:58;13.10;89.50
20672;DHT22;10495;50.922;4.760;2023-04-07T07:22:23;13.20;89.70
20672;DHT22;10495;50.922;4.760;2023-04-07T07:24:49;13.30;89.70
20672;DHT22;10495;50.922;4.760;2023-04-07T07:27:15;13.30;88.90
20672;DHT22;10495;50.922;4.760;2023-04-07T07:29:41;13.30;88.20
20672;DHT22;10495;50.922;4.760;2023-04-07T07:32:06;13.20;87.50
20672;DHT22;10495;50.922;4.760;2023-04-07T07:34:32;13.10;88.30
20672;DHT22;10495;50.922;4.760;2023-04-07T07:36:58;13.10;88.10
20672;DHT22;10495;50.922;4.760;2023-04-07T07:39:24;12.60;85.80
20672;DHT22;10495;50.922;4.760;2023-04-07T07:41:50;12.50;87.60
20672;DHT22;10495;50.922;4.760;2023-04-07T07:44:16;12.60;87.80
20672;DHT22;10495;50.922;4.760;2023-04-07T07:46:41;12.70;88.50
20672;DHT22;10495;50.922;4.760;2023-04-07T07:49:07;12.80;88.10
20672;DHT22;10495;50.922;4.760;2023-04-07T07:51:33;12.90;87.30
20672;DHT22;10495;50.922;4.760;2023-04-07T07:53:59;12.80;88.10
20672;DHT22;10495;50.922;4.760;2023-04-07T07:56:24;12.80;88.40
20672;DHT22;10495;50.922;4.760;2023-04-07T07:58:50;12.90;88.00
20672;DHT22;10495;50.922;4.760;2023-04-07T08:01:16;13.20;87.20
20672;DHT22;10495;50.922;4.760;2023-04-07T08:03:41;13.60;86.30
20672;DHT22;10495;50.922;4.760;2023-04-07T08:06:07;14.10;87.20
20672;DHT22;10495;50.922;4.760;2023-04-07T08:08:34;14.00;82.80
20672;DHT22;10495;50.922;4.760;2023-04-07T08:11:00;13.50;83.10
20672;DHT22;10495;50.922;4.760;2023-04-07T08:13:26;13.50;83.90
20672;DHT22;10495;50.922;4.760;2023-04-07T08:15:51;13.30;84.10
20672;DHT22;10495;50.922;4.760;2023-04-07T08:18:17;13.10;84.90
20672;DHT22;10495;50.922;4.760;2023-04-07T08:20:42;13.30;84.90
20672;DHT22;10495;50.922;4.760;2023-04-07T08:23:08;13.40;84.90
20672;DHT22;10495;50.922;4.760;2023-04-07T08:25:34;13.40;85.00
20672;DHT22;10495;50.922;4.760;2023-04-07T08:27:59;13.40;85.30
20672;DHT22;10495;50.922;4.760;2023-04-07T08:30:25;13.40;85.50
20672;DHT22;10495;50.922;4.760;2023-04-07T08:32:51;13.30;85.80
20672;DHT22;10495;50.922;4.760;2023-04-07T08:35:16;13.30;85.30
20672;DHT22;10495;50.922;4.760;2023-04-07T08:37:42;13.40;85.30
20672;DHT22;10495;50.922;4.760;2023-04-07T08:40:09;13.30;85.20
20672;DHT22;10495;50.922;4.760;2023-04-07T08:42:40;13.30;85.30
20672;DHT22;10495;50.922;4.760;2023-04-07T08:45:06;13.20;85.50
20672;DHT22;10495;50.922;4.760;2023-04-07T08:47:34;13.10;85.20
20672;DHT22;10495;50.922;4.760;2023-04-07T08:50:05;13.10;85.00
20672;DHT22;10495;50.922;4.760;2023-04-07T08:55:06;13.00;84.80
20672;DHT22;10495;50.922;4.760;2023-04-07T08:57:33;12.80;84.80
20672;DHT22;10495;50.922;4.760;2023-04-07T09:00:00;12.60;84.70
20672;DHT22;10495;50.922;4.760;2023-04-07T09:02:34;12.70;85.10
20672;DHT22;10495;50.922;4.760;2023-04-07T09:05:03;12.50;86.40
20672;DHT22;10495;50.922;4.760;2023-04-07T09:07:31;12.60;86.30
20672;DHT22;10495;50.922;4.760;2023-04-07T09:09:57;12.60;86.60
20672;DHT22;10495;50.922;4.760;2023-04-07T09:12:23;12.60;86.30
20672;DHT22;10495;50.922;4.760;2023-04-07T09:14:48;12.60;86.30
20672;DHT22;10495;50.922;4.760;2023-04-07T09:17:14;12.60;86.00
20672;DHT22;10495;50.922;4.760;2023-04-07T09:19:40;12.50;85.70
20672;DHT22;10495;50.922;4.760;2023-04-07T09:22:05;12.50;85.80
20672;DHT22;10495;50.922;4.760;2023-04-07T09:24:32;12.60;85.70
20672;DHT22;10495;50.922;4.760;2023-04-07T09:29:44;12.40;86.70
20672;DHT22;10495;50.922;4.760;2023-04-07T09:32:10;12.20;86.60
20672;DHT22;10495;50.922;4.760;2023-04-07T09:34:38;12.30;87.20
20672;DHT22;10495;50.922;4.760;2023-04-07T09:37:05;12.30;85.80
20672;DHT22;10495;50.922;4.760;2023-04-07T09:39:31;12.00;85.70
20672;DHT22;10495;50.922;4.760;2023-04-07T09:41:57;12.20;87.50
20672;DHT22;10495;50.922;4.760;2023-04-07T09:44:25;12.50;88.70
20672;DHT22;10495;50.922;4.760;2023-04-07T09:46:52;12.70;88.30
20672;DHT22;10495;50.922;4.760;2023-04-07T09:49:19;13.10;86.60
20672;DHT22;10495;50.922;4.760;2023-04-07T09:52:05;13.30;85.10
20672;DHT22;10495;50.922;4.760;2023-04-07T09:54:39;13.60;85.00
20672;DHT22;10495;50.922;4.760;2023-04-07T09:57:08;13.60;83.40
20672;DHT22;10495;50.922;4.760;2023-04-07T09:59:36;13.60;84.10
20672;DHT22;10495;50.922;4.760;2023-04-07T10:02:03;13.80;82.30
20672;DHT22;10495;50.922;4.760;2023-04-07T10:04:28;14.00;83.50
20672;DHT22;10495;50.922;4.760;2023-04-07T10:06:56;14.20;81.80
20672;DHT22;10495;50.922;4.760;2023-04-07T10:09:23;14.40;81.90
20672;DHT22;10495;50.922;4.760;2023-04-07T10:11:50;14.10;79.80
20672;DHT22;10495;50.922;4.760;2023-04-07T10:14:18;14.20;80.20
20672;DHT22;10495;50.922;4.760;2023-04-07T10:16:46;14.00;77.30
20672;DHT22;10495;50.922;4.760;2023-04-07T10:19:12;14.20;79.30
20672;DHT22;10495;50.922;4.760;2023-04-07T10:21:40;14.10;77.50
20672;DHT22;10495;50.922;4.760;2023-04-07T10:24:31;13.50;78.20
20672;DHT22;10495;50.922;4.760;2023-04-07T10:27:03;13.20;80.30
20672;DHT22;10495;50.922;4.760;2023-04-07T10:29:34;13.20;80.60
20672;DHT22;10495;50.922;4.760;2023-04-07T10:32:02;13.70;81.60
20672;DHT22;10495;50.922;4.760;2023-04-07T10:37:13;14.40;81.10
20672;DHT22;10495;50.922;4.760;2023-04-07T10:39:42;14.40;79.30
20672;DHT22;10495;50.922;4.760;2023-04-07T10:45:04;14.00;77.30
20672;DHT22;10495;50.922;4.760;2023-04-07T10:47:30;13.90;78.70
20672;DHT22;10495;50.922;4.760;2023-04-07T10:50:15;13.60;77.60
20672;DHT22;10495;50.922;4.760;2023-04-07T10:52:41;13.70;78.80
20672;DHT22;10495;50.922;4.760;2023-04-07T10:58:18;13.10;78.30
20672;DHT22;10495;50.922;4.760;2023-04-07T11:03:36;13.10;80.70
20672;DHT22;10495;50.922;4.760;2023-04-07T11:06:10;12.80;80.50
20672;DHT22;10495;50.922;4.760;2023-04-07T11:08:38;13.00;81.80
20672;DHT22;10495;50.922;4.760;2023-04-07T11:11:04;12.90;81.10
20672;DHT22;10495;50.922;4.760;2023-04-07T11:13:47;12.60;82.60
20672;DHT22;10495;50.922;4.760;2023-04-07T11:16:13;12.60;82.90
20672;DHT22;10495;50.922;4.760;2023-04-07T11:18:40;13.00;83.60
20672;DHT22;10495;50.922;4.760;2023-04-07T11:21:07;13.30;82.00
20672;DHT22;10495;50.922;4.760;2023-04-07T11:23:40;13.30;82.80
20672;DHT22;10495;50.922;4.760;2023-04-07T11:26:07;13.50;82.90
20672;DHT22;10495;50.922;4.760;2023-04-07T11:28:34;13.80;82.90
20672;DHT22;10495;50.922;4.760;2023-04-07T11:31:00;13.90;82.10
20672;DHT22;10495;50.922;4.760;2023-04-07T11:33:28;14.20;80.90
20672;DHT22;10495;50.922;4.760;2023-04-07T11:36:00;14.30;80.60
20672;DHT22;10495;50.922;4.760;2023-04-07T11:38:28;13.90;78.00
20672;DHT22;10495;50.922;4.760;2023-04-07T11:40:55;13.60;78.70
20672;DHT22;10495;50.922;4.760;2023-04-07T11:43:25;13.70;78.60
20672;DHT22;10495;50.922;4.760;2023-04-07T11:46:13;13.70;78.30
20672;DHT22;10495;50.922;4.760;2023-04-07T11:48:41;13.60;78.90
20672;DHT22;10495;50.922;4.760;2023-04-07T11:51:21;13.20;78.10
20672;DHT22;10495;50.922;4.760;2023-04-07T11:53:54;13.10;79.70
20672;DHT22;10495;50.922;4.760;2023-04-07T11:56:20;12.80;79.40
20672;DHT22;10495;50.922;4.760;2023-04-07T11:58:51;12.80;80.90
20672;DHT22;10495;50.922;4.760;2023-04-07T12:01:17;12.90;80.20
20672;DHT22;10495;50.922;4.760;2023-04-07T12:04:02;13.00;80.00
20672;DHT22;10495;50.922;4.760;2023-04-07T12:06:32;12.60;79.70
20672;DHT22;10495;50.922;4.760;2023-04-07T12:11:51;12.70;80.80
20672;DHT22;10495;50.922;4.760;2023-04-07T12:14:17;12.60;81.10
20672;DHT22;10495;50.922;4.760;2023-04-07T12:16:44;12.40;82.40
20672;DHT22;10495;50.922;4.760;2023-04-07T12:19:09;12.40;82.70
20672;DHT22;10495;50.922;4.760;2023-04-07T12:21:35;12.40;82.20
20672;DHT22;10495;50.922;4.760;2023-04-07T12:24:01;12.20;82.70
20672;DHT22;10495;50.922;4.760;2023-04-07T12:26:26;12.20;83.00
20672;DHT22;10495;50.922;4.760;2023-04-07T12:28:52;12.20;82.70
20672;DHT22;10495;50.922;4.760;2023-04-07T12:31:18;12.20;83.00
20672;DHT22;10495;50.922;4.760;2023-04-07T12:33:43;12.20;83.40
20672;DHT22;10495;50.922;4.760;2023-04-07T12:36:09;12.20;83.50
20672;DHT22;10495;50.922;4.760;2023-04-07T12:38:35;12.30;83.40
20672;DHT22;10495;50.922;4.760;2023-04-07T12:41:01;12.50;83.40
20672;DHT22;10495;50.922;4.760;2023-04-07T12:43:30;12.70;83.60
20672;DHT22;10495;50.922;4.760;2023-04-07T12:45:56;12.90;82.60
20672;DHT22;10495;50.922;4.760;2023-04-07T12:48:22;13.20;80.50
20672;DHT22;10495;50.922;4.760;2023-04-07T12:50:48;13.30;81.20
20672;DHT22;10495;50.922;4.760;2023-04-07T12:53:14;13.60;81.20
20672;DHT22;10495;50.922;4.760;2023-04-07T12:55:40;13.50;78.10
20672;DHT22;10495;50.922;4.760;2023-04-07T12:58:06;13.30;78.90
20672;DHT22;10495;50.922;4.760;2023-04-07T13:00:33;13.40;79.30
20672;DHT22;10495;50.922;4.760;2023-04-07T13:02:59;13.50;78.70
20672;DHT22;10495;50.922;4.760;2023-04-07T13:05:24;13.90;79.10
20672;DHT22;10495;50.922;4.760;2023-04-07T13:07:50;14.00;77.20
20672;DHT22;10495;50.922;4.760;2023-04-07T13:10:15;14.00;76.70
20672;DHT22;10495;50.922;4.760;2023-04-07T13:12:41;14.20;78.40
20672;DHT22;10495;50.922;4.760;2023-04-07T13:15:07;14.20;75.10
20672;DHT22;10495;50.922;4.760;2023-04-07T13:17:33;14.20;76.30
20672;DHT22;10495;50.922;4.760;2023-04-07T13:20:02;14.50;76.00
20672;DHT22;10495;50.922;4.760;2023-04-07T13:22:28;14.70;75.30
20672;DHT22;10495;50.922;4.760;2023-04-07T13:24:54;14.70;73.50
20672;DHT22;10495;50.922;4.760;2023-04-07T13:27:19;14.50;73.70
20672;DHT22;10495;50.922;4.760;2023-04-07T13:29:45;14.10;72.50
20672;DHT22;10495;50.922;4.760;2023-04-07T13:32:11;13.80;73.80
20672;DHT22;10495;50.922;4.760;2023-04-07T13:34:38;13.50;73.80
20672;DHT22;10495;50.922;4.760;2023-04-07T13:37:04;13.40;74.80
20672;DHT22;10495;50.922;4.760;2023-04-07T13:39:31;13.10;75.00
20672;DHT22;10495;50.922;4.760;2023-04-07T13:41:57;13.10;75.40
20672;DHT22;10495;50.922;4.760;2023-04-07T13:44:24;13.30;74.90
20672;DHT22;10495;50.922;4.760;2023-04-07T13:46:50;13.20;75.60
20672;DHT22;10495;50.922;4.760;2023-04-07T13:49:16;13.00;77.50
20672;DHT22;10495;50.922;4.760;2023-04-07T13:51:42;12.90;78.40
20672;DHT22;10495;50.922;4.760;2023-04-07T13:54:08;12.90;78.40
20672;DHT22;10495;50.922;4.760;2023-04-07T13:56:33;12.70;78.10
20672;DHT22;10495;50.922;4.760;2023-04-07T13:59:06;12.60;78.80
20672;DHT22;10495;50.922;4.760;2023-04-07T14:01:34;12.40;77.90
20672;DHT22;10495;50.922;4.760;2023-04-07T14:04:03;12.30;78.70
20672;DHT22;10495;50.922;4.760;2023-04-07T14:06:29;12.60;79.10
20672;DHT22;10495;50.922;4.760;2023-04-07T14:08:56;12.60;78.80
20672;DHT22;10495;50.922;4.760;2023-04-07T14:11:22;12.40;79.40
20672;DHT22;10495;50.922;4.760;2023-04-07T14:13:48;12.30;80.30
20672;DHT22;10495;50.922;4.760;2023-04-07T14:16:14;12.30;79.80
20672;DHT22;10495;50.922;4.760;2023-04-07T14:18:40;12.20;81.20
20672;DHT22;10495;50.922;4.760;2023-04-07T14:21:05;12.30;80.00
20672;DHT22;10495;50.922;4.760;2023-04-07T14:23:31;12.40;79.20
20672;DHT22;10495;50.922;4.760;2023-04-07T14:25:58;12.60;79.70
20672;DHT22;10495;50.922;4.760;2023-04-07T14:28:23;12.60;78.50
20672;DHT22;10495;50.922;4.760;2023-04-07T14:30:49;12.70;78.20
20672;DHT22;10495;50.922;4.760;2023-04-07T14:33:15;12.90;78.10
20672;DHT22;10495;50.922;4.760;2023-04-07T14:35:43;12.90;77.90
20672;DHT22;10495;50.922;4.760;2023-04-07T14:38:09;12.80;78.00
20672;DHT22;10495;50.922;4.760;2023-04-07T14:40:34;12.80;78.50
20672;DHT22;10495;50.922;4.760;2023-04-07T14:43:01;12.70;78.20
20672;DHT22;10495;50.922;4.760;2023-04-07T14:45:27;12.90;77.80
20672;DHT22;10495;50.922;4.760;2023-04-07T14:47:53;13.00;76.30
20672;DHT22;10495;50.922;4.760;2023-04-07T14:50:19;12.90;76.00
20672;DHT22;10495;50.922;4.760;2023-04-07T14:52:44;13.10;76.50
20672;DHT22;10495;50.922;4.760;2023-04-07T14:55:10;12.60;76.30
20672;DHT22;10495;50.922;4.760;2023-04-07T14:57:35;12.30;77.00
20672;DHT22;10495;50.922;4.760;2023-04-07T15:00:03;12.20;77.40
20672;DHT22;10495;50.922;4.760;2023-04-07T15:02:31;12.20;78.00
20672;DHT22;10495;50.922;4.760;2023-04-07T15:04:57;12.10;77.80
20672;DHT22;10495;50.922;4.760;2023-04-07T15:07:23;12.20;77.80
20672;DHT22;10495;50.922;4.760;2023-04-07T15:09:49;12.30;77.50
20672;DHT22;10495;50.922;4.760;2023-04-07T15:12:15;12.40;77.60
20672;DHT22;10495;50.922;4.760;2023-04-07T15:14:40;12.60;76.40
20672;DHT22;10495;50.922;4.760;2023-04-07T15:17:06;12.70;76.60
20672;DHT22;10495;50.922;4.760;2023-04-07T15:19:31;12.60;76.30
20672;DHT22;10495;50.922;4.760;2023-04-07T15:21:57;12.50;77.20
20672;DHT22;10495;50.922;4.760;2023-04-07T15:24:23;12.20;78.20
20672;DHT22;10495;50.922;4.760;2023-04-07T15:26:48;12.50;79.90
20672;DHT22;10495;50.922;4.760;2023-04-07T15:29:14;12.90;76.60
20672;DHT22;10495;50.922;4.760;2023-04-07T15:31:39;12.60;75.60
20672;DHT22;10495;50.922;4.760;2023-04-07T15:34:05;12.40;75.70
20672;DHT22;10495;50.922;4.760;2023-04-07T15:36:31;12.60;74.90
20672;DHT22;10495;50.922;4.760;2023-04-07T15:38:58;12.60;76.20
20672;DHT22;10495;50.922;4.760;2023-04-07T15:41:26;12.80;75.40
20672;DHT22;10495;50.922;4.760;2023-04-07T15:43:52;12.80;74.80
20672;DHT22;10495;50.922;4.760;2023-04-07T15:46:18;12.60;73.30
20672;DHT22;10495;50.922;4.760;2023-04-07T15:48:43;12.80;74.70
20672;DHT22;10495;50.922;4.760;2023-04-07T15:51:09;12.70;75.00
20672;DHT22;10495;50.922;4.760;2023-04-07T15:53:35;12.90;74.90
20672;DHT22;10495;50.922;4.760;2023-04-07T15:56:00;12.50;74.10
20672;DHT22;10495;50.922;4.760;2023-04-07T15:58:26;12.50;73.90
20672;DHT22;10495;50.922;4.760;2023-04-07T16:00:52;12.80;74.90